sensor_id;sensor_type;location;lat;lon;timestamp;pressure;altitude;pressure_sealevel;temperature;humidity
11682;BME280;5897;42.640;23.310;2023-06-14T00:02:22;93651.13;;;17.24;100.00
11682;BME280;5897;42.640;23.310;2023-06-14T00:04:49;93650.09;;;17.21;100.00
11682;BME280;5897;42.640;23.310;2023-06-14T00:07:16;93655.34;;;17.25;100.00
11682;BME280;5897;42.640;23.310;2023-06-14T00:09:43;93648.19;;;17.27;100.00
11682;BME280;5897;42.640;23.310;2023-06-14T00:12:12;93651.22;;;17.29;100.00
11682;BME280;5897;42.640;23.310;2023-06-14T00:14:38;93645.56;;;17.33;100.00
11682;BME280;5897;42.640;23.310;2023-06-14T00:17:05;93641.59;;;17.34;100.00
11682;BME280;5897;42.640;23.310;2023-06-14T00:19:32;93640.09;;;17.33;100.00
11682;BME280;5897;42.640;23.310;2023-06-14T00:22:00;93641.59;;;17.34;100.00
11682;BME280;5897;42.640;23.310;2023-06-14T00:24:28;93642.53;;;17.31;100.00
11682;BME280;5897;42.640;23.310;2023-06-14T00:26:55;93636.53;;;17.27;100.00
11682;BME280;5897;42.640;23.310;2023-06-14T00:29:23;93637.94;;;17.22;100.00
11682;BME280;5897;42.640;23.310;2023-06-14T00:31:50;93638.13;;;17.19;100.00
11682;BME280;5897;42.640;23.310;2023-06-14T00:34:17;93633.72;;;17.21;100.00
11682;BME280;5897;42.640;23.310;2023-06-14T00:36:44;93644.81;;;17.18;100.00
11682;BME280;5897;42.640;23.310;2023-06-14T00:39:11;93627.50;;;17.21;100.00
11682;BME280;5897;42.640;23.310;2023-06-14T00:41:37;93630.97;;;17.21;100.00
11682;BME280;5897;42.640;23.310;2023-06-14T00:44:04;93634.47;;;17.22;100.00
11682;BME280;5897;42.640;23.310;2023-06-14T00:46:33;93627.50;;;17.21;100.00
11682;BME280;5897;42.640;23.310;2023-06-14T00:49:00;93617.53;;;17.18;100.00
11682;BME280;5897;42.640;23.310;2023-06-14T00:51:28;93616.03;;;17.17;100.00
11682;BME280;5897;42.640;23.310;2023-06-14T00:53:54;93624.25;;;17.02;100.00
11682;BME280;5897;42.640;23.310;2023-06-14T00:56:21;93632.09;;;16.95;100.00
11682;BME280;5897;42.640;23.310;2023-06-14T00:58:48;93633.50;;;16.90;100.00
11682;BME280;5897;42.640;23.310;2023-06-14T01:01:16;93625.41;;;16.96;100.00
11682;BME280;5897;42.640;23.310;2023-06-14T01:03:44;93623.78;;;17.04;100.00
11682;BME280;5897;42.640;23.310;2023-06-14T01:06:18;93612.88;;;17.04;100.00
11682;BME280;5897;42.640;23.310;2023-06-14T01:09:05;93621.59;;;17.08;100.00
11682;BME280;5897;42.640;23.310;2023-06-14T01:11:39;93629.34;;;16.95;100.00
11682;BME280;5897;42.640;23.310;2023-06-14T01:14:07;93624.16;;;16.97;100.00
11682;BME280;5897;42.640;23.310;2023-06-14T01:16:36;93611.28;;;16.97;100.00
11682;BME280;5897;42.640;23.310;2023-06-14T01:19:07;93621.16;;;16.95;100.00
11682;BME280;5897;42.640;23.310;2023-06-14T01:21:37;93624.09;;;16.91;100.00
11682;BME280;5897;42.640;23.310;2023-06-14T01:24:08;93615.91;;;16.91;100.00
11682;BME280;5897;42.640;23.310;2023-06-14T01:26:36;93625.13;;;16.94;100.00
11682;BME280;5897;42.640;23.310;2023-06-14T01:29:05;93624.84;;;16.92;100.00
11682;BME280;5897;42.640;23.310;2023-06-14T01:31:34;93620.13;;;16.92;100.00
11682;BME280;5897;42.640;23.310;2023-06-14T01:34:07;93616.94;;;16.94;100.00
11682;BME280;5897;42.640;23.310;2023-06-14T01:36:35;93618.91;;;16.93;100.00
11682;BME280;5897;42.640;23.310;2023-06-14T01:39:04;93620.22;;;16.98;100.00
11682;BME280;5897;42.640;23.310;2023-06-14T01:41:34;93616.06;;;17.02;100.00
11682;BME280;5897;42.640;23.310;2023-06-14T01:44:01;93621.94;;;16.95;100.00
11682;BME280;5897;42.640;23.310;2023-06-14T01:46:28;93626.06;;;16.91;100.00
11682;BME280;5897;42.640;23.310;2023-06-14T01:48:55;93621.25;;;16.86;100.00
11682;BME280;5897;42.640;23.310;2023-06-14T01:51:22;93618.19;;;16.78;100.00
11682;BME280;5897;42.640;23.310;2023-06-14T01:53:49;93619.22;;;16.81;100.00
11682;BME280;5897;42.640;23.310;2023-06-14T01:56:15;93624.13;;;16.77;100.00
11682;BME280;5897;42.640;23.310;2023-06-14T01:58:44;93626.28;;;16.73;100.00
11682;BME280;5897;42.640;23.310;2023-06-14T02:01:13;93621.41;;;16.62;100.00
11682;BME280;5897;42.640;23.310;2023-06-14T02:03:41;93632.69;;;16.70;100.00
11682;BME280;5897;42.640;23.310;2023-06-14T02:06:10;93629.56;;;16.77;100.00
11682;BME280;5897;42.640;23.310;2023-06-14T02:08:37;93640.75;;;16.79;100.00
11682;BME280;5897;42.640;23.310;2023-06-14T02:11:04;93635.59;;;16.81;100.00
11682;BME280;5897;42.640;23.310;2023-06-14T02:13:31;93647.06;;;16.85;100.00
11682;BME280;5897;42.640;23.310;2023-06-14T02:16:01;93645.34;;;16.87;100.00
11682;BME280;5897;42.640;23.310;2023-06-14T02:18:28;93649.31;;;16.86;100.00
11682;BME280;5897;42.640;23.310;2023-06-14T02:20:55;93649.41;;;16.92;100.00
11682;BME280;5897;42.640;23.310;2023-06-14T02:23:22;93650.25;;;16.98;100.00
11682;BME280;5897;42.640;23.310;2023-06-14T02:25:50;93647.53;;;16.98;100.00
11682;BME280;5897;42.640;23.310;2023-06-14T02:28:16;93649.22;;;16.95;100.00
11682;BME280;5897;42.640;23.310;2023-06-14T02:30:43;93646.81;;;17.03;100.00
11682;BME280;5897;42.640;23.310;2023-06-14T02:33:11;93646.56;;;17.01;100.00
11682;BME280;5897;42.640;23.310;2023-06-14T02:35:38;93655.72;;;16.98;100.00
11682;BME280;5897;42.640;23.310;2023-06-14T02:38:05;93659.75;;;17.02;100.00
11682;BME280;5897;42.640;23.310;2023-06-14T02:40:32;93662.19;;;17.00;100.00
11682;BME280;5897;42.640;23.310;2023-06-14T02:42:58;93648.72;;;16.97;100.00
11682;BME280;5897;42.640;23.310;2023-06-14T02:45:25;93652.47;;;16.99;100.00
11682;BME280;5897;42.640;23.310;2023-06-14T02:47:52;93649.75;;;16.99;100.00
11682;BME280;5897;42.640;23.310;2023-06-14T02:50:22;93656.25;;;17.02;100.00
11682;BME280;5897;42.640;23.310;2023-06-14T02:52:49;93646.09;;;17.02;100.00
11682;BME280;5897;42.640;23.310;2023-06-14T02:55:16;93647.13;;;17.05;100.00
11682;BME280;5897;42.640;23.310;2023-06-14T02:57:42;93657.00;;;17.02;100.00
11682;BME280;5897;42.640;23.310;2023-06-14T03:00:10;93650.53;;;17.00;100.00
11682;BME280;5897;42.640;23.310;2023-06-14T03:02:38;93659.53;;;17.06;100.00
11682;BME280;5897;42.640;23.310;2023-06-14T03:05:06;93656.16;;;17.11;100.00
11682;BME280;5897;42.640;23.310;2023-06-14T03:07:35;93657.06;;;17.08;100.00
11682;BME280;5897;42.640;23.310;2023-06-14T03:10:07;93667.06;;;17.11;100.00
11682;BME280;5897;42.640;23.310;2023-06-14T03:12:34;93649.28;;;17.01;100.00
11682;BME280;5897;42.640;23.310;2023-06-14T03:15:02;93663.56;;;17.10;100.00
11682;BME280;5897;42.640;23.310;2023-06-14T03:17:29;93666.50;;;17.07;100.00
11682;BME280;5897;42.640;23.310;2023-06-14T03:19:58;93659.75;;;17.02;100.00
11682;BME280;5897;42.640;23.310;2023-06-14T03:22:25;93667.72;;;17.06;100.00
11682;BME280;5897;42.640;23.310;2023-06-14T03:24:55;93668.00;;;17.08;100.00
11682;BME280;5897;42.640;23.310;2023-06-14T03:27:22;93662.34;;;17.11;100.00
11682;BME280;5897;42.640;23.310;2023-06-14T03:29:49;93666.59;;;17.12;100.00
11682;BME280;5897;42.640;23.310;2023-06-14T03:32:15;93661.88;;;17.13;100.00
11682;BME280;5897;42.640;23.310;2023-06-14T03:34:42;93662.16;;;17.15;100.00
11682;BME280;5897;42.640;23.310;2023-06-14T03:37:10;93682.13;;;17.21;100.00
11682;BME280;5897;42.640;23.310;2023-06-14T03:39:37;93683.31;;;17.20;100.00
11682;BME280;5897;42.640;23.310;2023-06-14T03:42:12;93677.38;;;17.21;100.00
11682;BME280;5897;42.640;23.310;2023-06-14T03:44:39;93683.25;;;17.14;100.00
11682;BME280;5897;42.640;23.310;2023-06-14T03:47:06;93681.09;;;17.18;100.00
11682;BME280;5897;42.640;23.310;2023-06-14T03:49:33;93686.81;;;17.20;100.00
11682;BME280;5897;42.640;23.310;2023-06-14T03:52:00;93681.81;;;17.19;100.00
11682;BME280;5897;42.640;23.310;2023-06-14T03:54:27;93670.69;;;17.22;100.00
11682;BME280;5897;42.640;23.310;2023-06-14T03:56:55;93684.84;;;17.21;100.00
11682;BME280;5897;42.640;23.310;2023-06-14T03:59:23;93673.44;;;17.22;100.00
11682;BME280;5897;42.640;23.310;2023-06-14T04:01:51;93681.41;;;17.26;100.00
11682;BME280;5897;42.640;23.310;2023-06-14T04:04:18;93687.44;;;17.30;100.00
11682;BME280;5897;42.640;23.310;2023-06-14T04:06:46;93680.22;;;17.27;100.00
11682;BME280;5897;42.640;23.310;2023-06-14T04:09:13;93675.59;;;17.33;100.00
11682;BME280;5897;42.640;23.310;2023-06-14T04:11:40;93691.13;;;17.27;100.00
11682;BME280;5897;42.640;23.310;2023-06-14T04:14:07;93683.22;;;17.29;100.00
11682;BME280;5897;42.640;23.310;2023-06-14T04:16:35;93681.25;;;17.29;100.00
11682;BME280;5897;42.640;23.310;2023-06-14T04:19:02;93680.47;;;17.29;100.00
11682;BME280;5897;42.640;23.310;2023-06-14T04:21:29;93687.75;;;17.32;100.00
11682;BME280;5897;42.640;23.310;2023-06-14T04:23:55;93678.84;;;17.37;100.00
11682;BME280;5897;42.640;23.310;2023-06-14T04:26:22;93681.72;;;17.42;100.00
11682;BME280;5897;42.640;23.310;2023-06-14T04:28:54;93683.97;;;17.44;100.00
11682;BME280;5897;42.640;23.310;2023-06-14T04:31:22;93678.31;;;17.47;100.00
11682;BME280;5897;42.640;23.310;2023-06-14T04:33:51;93685.81;;;17.52;100.00
11682;BME280;5897;42.640;23.310;2023-06-14T04:36:19;93679.03;;;17.48;100.00
11682;BME280;5897;42.640;23.310;2023-06-14T04:38:47;93688.81;;;17.54;100.00
11682;BME280;5897;42.640;23.310;2023-06-14T04:41:14;93682.53;;;17.48;100.00
11682;BME280;5897;42.640;23.310;2023-06-14T04:43:41;93690.88;;;17.59;100.00
11682;BME280;5897;42.640;23.310;2023-06-14T04:46:08;93684.38;;;17.57;100.00
11682;BME280;5897;42.640;23.310;2023-06-14T04:48:36;93678.25;;;17.62;100.00
11682;BME280;5897;42.640;23.310;2023-06-14T04:51:06;93694.66;;;17.62;100.00
11682;BME280;5897;42.640;23.310;2023-06-14T04:53:33;93692.47;;;17.66;100.00
11682;BME280;5897;42.640;23.310;2023-06-14T04:56:00;93692.72;;;17.68;100.00
11682;BME280;5897;42.640;23.310;2023-06-14T04:58:28;93693.28;;;17.72;100.00
11682;BME280;5897;42.640;23.310;2023-06-14T05:00:55;93691.38;;;17.78;100.00
11682;BME280;5897;42.640;23.310;2023-06-14T05:03:24;93699.53;;;17.92;100.00
11682;BME280;5897;42.640;23.310;2023-06-14T05:05:52;93716.06;;;18.03;100.00
11682;BME280;5897;42.640;23.310;2023-06-14T05:08:20;93708.72;;;18.15;100.00
11682;BME280;5897;42.640;23.310;2023-06-14T05:10:49;93703.38;;;18.26;100.00
11682;BME280;5897;42.640;23.310;2023-06-14T05:13:15;93709.00;;;18.37;100.00
11682;BME280;5897;42.640;23.310;2023-06-14T05:15:42;93710.00;;;18.59;100.00
11682;BME280;5897;42.640;23.310;2023-06-14T05:18:09;93707.31;;;18.90;100.00
11682;BME280;5897;42.640;23.310;2023-06-14T05:20:36;93708.88;;;19.22;100.00
11682;BME280;5897;42.640;23.310;2023-06-14T05:23:03;93718.03;;;19.50;100.00
11682;BME280;5897;42.640;23.310;2023-06-14T05:25:31;93713.41;;;19.67;100.00
11682;BME280;5897;42.640;23.310;2023-06-14T05:27:58;93721.69;;;19.78;100.00
11682;BME280;5897;42.640;23.310;2023-06-14T05:30:25;93725.31;;;20.01;100.00
11682;BME280;5897;42.640;23.310;2023-06-14T05:32:52;93729.16;;;20.14;100.00
11682;BME280;5897;42.640;23.310;2023-06-14T05:35:20;93731.03;;;20.45;100.00
11682;BME280;5897;42.640;23.310;2023-06-14T05:37:48;93719.56;;;20.52;100.00
11682;BME280;5897;42.640;23.310;2023-06-14T05:40:15;93726.59;;;20.64;100.00
11682;BME280;5897;42.640;23.310;2023-06-14T05:42:45;93722.84;;;20.61;100.00
11682;BME280;5897;42.640;23.310;2023-06-14T05:45:11;93729.84;;;20.73;100.00
11682;BME280;5897;42.640;23.310;2023-06-14T05:47:40;93740.59;;;20.77;100.00
11682;BME280;5897;42.640;23.310;2023-06-14T05:50:07;93741.84;;;20.70;100.00
11682;BME280;5897;42.640;23.310;2023-06-14T05:52:34;93747.31;;;20.65;100.00
11682;BME280;5897;42.640;23.310;2023-06-14T05:55:02;93746.94;;;20.35;100.00
11682;BME280;5897;42.640;23.310;2023-06-14T05:57:29;93743.94;;;20.28;100.00
11682;BME280;5897;42.640;23.310;2023-06-14T05:59:57;93743.88;;;20.17;100.00
11682;BME280;5897;42.640;23.310;2023-06-14T06:02:24;93752.56;;;20.10;100.00
11682;BME280;5897;42.640;23.310;2023-06-14T06:04:50;93751.50;;;20.02;100.00
11682;BME280;5897;42.640;23.310;2023-06-14T06:07:17;93760.19;;;19.95;100.00
11682;BME280;5897;42.640;23.310;2023-06-14T06:09:44;93753.41;;;19.85;100.00
11682;BME280;5897;42.640;23.310;2023-06-14T06:12:11;93758.00;;;19.62;100.00
11682;BME280;5897;42.640;23.310;2023-06-14T06:14:37;93757.66;;;19.24;100.00
11682;BME280;5897;42.640;23.310;2023-06-14T06:17:06;93751.78;;;19.31;100.00
11682;BME280;5897;42.640;23.310;2023-06-14T06:19:33;93758.47;;;19.30;100.00
11682;BME280;5897;42.640;23.310;2023-06-14T06:21:59;93761.72;;;19.28;100.00
11682;BME280;5897;42.640;23.310;2023-06-14T06:24:26;93768.06;;;19.20;100.00
11682;BME280;5897;42.640;23.310;2023-06-14T06:26:53;93757.94;;;19.26;100.00
11682;BME280;5897;42.640;23.310;2023-06-14T06:29:20;93764.44;;;19.28;100.00
11682;BME280;5897;42.640;23.310;2023-06-14T06:31:47;93765.81;;;19.18;100.00
11682;BME280;5897;42.640;23.310;2023-06-14T06:34:15;93770.81;;;19.20;100.00
11682;BME280;5897;42.640;23.310;2023-06-14T06:36:42;93770.75;;;19.14;100.00
11682;BME280;5897;42.640;23.310;2023-06-14T06:39:08;93767.75;;;19.12;100.00
11682;BME280;5897;42.640;23.310;2023-06-14T06:41:36;93767.31;;;19.19;100.00
11682;BME280;5897;42.640;23.310;2023-06-14T06:44:03;93753.31;;;19.12;100.00
11682;BME280;5897;42.640;23.310;2023-06-14T06:46:31;93766.41;;;19.28;100.00
11682;BME280;5897;42.640;23.310;2023-06-14T06:49:01;93762.00;;;19.36;100.00
11682;BME280;5897;42.640;23.310;2023-06-14T06:51:29;93769.03;;;19.42;100.00
11682;BME280;5897;42.640;23.310;2023-06-14T06:53:56;93769.34;;;19.50;100.00
11682;BME280;5897;42.640;23.310;2023-06-14T06:56:23;93774.03;;;19.44;100.00
11682;BME280;5897;42.640;23.310;2023-06-14T06:58:50;93776.31;;;19.51;100.00
11682;BME280;5897;42.640;23.310;2023-06-14T07:01:17;93775.88;;;19.58;100.00
11682;BME280;5897;42.640;23.310;2023-06-14T07:03:44;93764.25;;;19.68;100.00
11682;BME280;5897;42.640;23.310;2023-06-14T07:06:11;93778.28;;;19.81;100.00
11682;BME280;5897;42.640;23.310;2023-06-14T07:08:39;93777.13;;;19.93;100.00
11682;BME280;5897;42.640;23.310;2023-06-14T07:11:06;93771.28;;;20.11;100.00
11682;BME280;5897;42.640;23.310;2023-06-14T07:13:32;93769.63;;;20.30;100.00
11682;BME280;5897;42.640;23.310;2023-06-14T07:16:00;93766.19;;;20.46;100.00
11682;BME280;5897;42.640;23.310;2023-06-14T07:18:27;93770.56;;;20.80;100.00
11682;BME280;5897;42.640;23.310;2023-06-14T07:20:54;93770.63;;;20.91;100.00
11682;BME280;5897;42.640;23.310;2023-06-14T07:23:21;93762.84;;;20.84;100.00
11682;BME280;5897;42.640;23.310;2023-06-14T07:25:49;93772.63;;;20.91;100.00
11682;BME280;5897;42.640;23.310;2023-06-14T07:28:16;93766.63;;;20.92;100.00
11682;BME280;5897;42.640;23.310;2023-06-14T07:30:43;93765.88;;;20.92;98.93
11682;BME280;5897;42.640;23.310;2023-06-14T07:33:10;93771.88;;;20.90;99.35
11682;BME280;5897;42.640;23.310;2023-06-14T07:35:37;93756.63;;;20.95;100.00
11682;BME280;5897;42.640;23.310;2023-06-14T07:38:04;93757.16;;;20.99;99.43
11682;BME280;5897;42.640;23.310;2023-06-14T07:40:31;93758.44;;;21.09;100.00
11682;BME280;5897;42.640;23.310;2023-06-14T07:42:59;93760.69;;;21.27;100.00
11682;BME280;5897;42.640;23.310;2023-06-14T07:45:27;93764.69;;;21.42;100.00
11682;BME280;5897;42.640;23.310;2023-06-14T07:47:53;93769.69;;;21.55;100.00
11682;BME280;5897;42.640;23.310;2023-06-14T07:50:20;93769.72;;;21.71;100.00
11682;BME280;5897;42.640;23.310;2023-06-14T07:52:47;93773.44;;;21.85;100.00
11682;BME280;5897;42.640;23.310;2023-06-14T07:55:14;93771.94;;;22.00;100.00
11682;BME280;5897;42.640;23.310;2023-06-14T07:57:41;93777.19;;;21.98;100.00
11682;BME280;5897;42.640;23.310;2023-06-14T08:00:12;93781.19;;;22.03;98.97
11682;BME280;5897;42.640;23.310;2023-06-14T08:02:41;93780.91;;;22.12;100.00
11682;BME280;5897;42.640;23.310;2023-06-14T08:05:09;93787.41;;;22.09;93.75
11682;BME280;5897;42.640;23.310;2023-06-14T08:07:37;93792.19;;;22.03;93.53
11682;BME280;5897;42.640;23.310;2023-06-14T08:10:04;93794.69;;;22.01;93.41
11682;BME280;5897;42.640;23.310;2023-06-14T08:12:32;93784.47;;;21.90;93.66
11682;BME280;5897;42.640;23.310;2023-06-14T08:14:59;93804.72;;;21.93;92.02
11682;BME280;5897;42.640;23.310;2023-06-14T08:17:27;93802.19;;;21.95;94.89
11682;BME280;5897;42.640;23.310;2023-06-14T08:19:54;93805.19;;;21.97;94.34
11682;BME280;5897;42.640;23.310;2023-06-14T08:22:22;93803.94;;;22.03;94.00
11682;BME280;5897;42.640;23.310;2023-06-14T08:24:50;93802.16;;;22.11;92.96
11682;BME280;5897;42.640;23.310;2023-06-14T08:27:18;93802.19;;;21.89;94.46
11682;BME280;5897;42.640;23.310;2023-06-14T08:29:45;93800.97;;;21.90;94.84
11682;BME280;5897;42.640;23.310;2023-06-14T08:32:12;93796.69;;;22.06;94.29
11682;BME280;5897;42.640;23.310;2023-06-14T08:34:40;93814.44;;;22.10;94.68
11682;BME280;5897;42.640;23.310;2023-06-14T08:37:07;93809.44;;;22.14;93.05
11682;BME280;5897;42.640;23.310;2023-06-14T08:39:33;93804.16;;;22.22;92.48
11682;BME280;5897;42.640;23.310;2023-06-14T08:42:01;93805.88;;;22.36;92.09
11682;BME280;5897;42.640;23.310;2023-06-14T08:44:28;93804.16;;;22.22;94.48
11682;BME280;5897;42.640;23.310;2023-06-14T08:46:56;93771.16;;;22.22;92.45
11682;BME280;5897;42.640;23.310;2023-06-14T08:49:24;93800.38;;;22.47;88.50
11682;BME280;5897;42.640;23.310;2023-06-14T08:51:57;93793.59;;;22.48;84.51
11682;BME280;5897;42.640;23.310;2023-06-14T08:54:25;93796.84;;;22.46;86.50
11682;BME280;5897;42.640;23.310;2023-06-14T08:56:55;93792.41;;;22.21;91.85
11682;BME280;5897;42.640;23.310;2023-06-14T08:59:24;93797.09;;;22.54;91.08
11682;BME280;5897;42.640;23.310;2023-06-14T09:01:52;93799.81;;;22.65;90.08
11682;BME280;5897;42.640;23.310;2023-06-14T09:04:20;93790.00;;;22.75;89.25
11682;BME280;5897;42.640;23.310;2023-06-14T09:06:47;93788.19;;;22.88;90.23
11682;BME280;5897;42.640;23.310;2023-06-14T09:09:20;93774.03;;;23.08;90.92
11682;BME280;5897;42.640;23.310;2023-06-14T09:11:49;93785.41;;;23.40;89.96
11682;BME280;5897;42.640;23.310;2023-06-14T09:14:17;93784.09;;;23.52;87.76
11682;BME280;5897;42.640;23.310;2023-06-14T09:16:44;93781.84;;;23.50;87.23
11682;BME280;5897;42.640;23.310;2023-06-14T09:19:14;93781.16;;;23.39;85.59
11682;BME280;5897;42.640;23.310;2023-06-14T09:21:47;93780.28;;;23.55;84.72
11682;BME280;5897;42.640;23.310;2023-06-14T09:24:14;93792.03;;;23.61;82.67
11682;BME280;5897;42.640;23.310;2023-06-14T09:26:42;93788.97;;;23.35;80.78
11682;BME280;5897;42.640;23.310;2023-06-14T09:29:09;93787.44;;;23.34;82.86
11682;BME280;5897;42.640;23.310;2023-06-14T09:31:36;93780.16;;;23.36;83.68
11682;BME280;5897;42.640;23.310;2023-06-14T09:34:03;93779.63;;;23.43;83.20
11682;BME280;5897;42.640;23.310;2023-06-14T09:36:32;93778.56;;;23.52;81.71
11682;BME280;5897;42.640;23.310;2023-06-14T09:39:01;93783.31;;;23.51;81.12
11682;BME280;5897;42.640;23.310;2023-06-14T09:41:31;93775.69;;;23.98;79.70
11682;BME280;5897;42.640;23.310;2023-06-14T09:44:01;93773.88;;;24.30;80.71
11682;BME280;5897;42.640;23.310;2023-06-14T09:46:29;93759.47;;;24.13;76.47
11682;BME280;5897;42.640;23.310;2023-06-14T09:48:56;93767.16;;;24.25;75.08
11682;BME280;5897;42.640;23.310;2023-06-14T09:51:23;93767.25;;;24.14;76.01
11682;BME280;5897;42.640;23.310;2023-06-14T09:53:51;93773.19;;;24.24;79.18
11682;BME280;5897;42.640;23.310;2023-06-14T09:56:28;93762.13;;;24.24;79.36
11682;BME280;5897;42.640;23.310;2023-06-14T09:58:57;93767.91;;;24.26;78.00
11682;BME280;5897;42.640;23.310;2023-06-14T10:01:26;93765.25;;;24.15;75.95
11682;BME280;5897;42.640;23.310;2023-06-14T10:03:55;93758.38;;;23.97;79.12
11682;BME280;5897;42.640;23.310;2023-06-14T10:06:29;93756.03;;;24.31;79.46
11682;BME280;5897;42.640;23.310;2023-06-14T10:08:57;93747.78;;;24.73;76.12
11682;BME280;5897;42.640;23.310;2023-06-14T10:11:25;93754.88;;;24.45;76.08
11682;BME280;5897;42.640;23.310;2023-06-14T10:13:52;93748.03;;;24.27;75.98
11682;BME280;5897;42.640;23.310;2023-06-14T10:16:25;93754.66;;;24.67;77.47
11682;BME280;5897;42.640;23.310;2023-06-14T10:19:00;93739.72;;;25.31;73.07
11682;BME280;5897;42.640;23.310;2023-06-14T10:21:40;93728.31;;;25.84;71.65
11682;BME280;5897;42.640;23.310;2023-06-14T10:24:13;93728.72;;;26.33;67.23
11682;BME280;5897;42.640;23.310;2023-06-14T10:26:50;93731.72;;;26.48;65.23
11682;BME280;5897;42.640;23.310;2023-06-14T10:29:18;93734.34;;;26.92;63.51
11682;BME280;5897;42.640;23.310;2023-06-14T10:31:47;93720.72;;;26.81;61.07
11682;BME280;5897;42.640;23.310;2023-06-14T10:34:22;93736.81;;;26.83;62.26
11682;BME280;5897;42.640;23.310;2023-06-14T10:37:02;93730.47;;;27.08;60.42
11682;BME280;5897;42.640;23.310;2023-06-14T10:39:30;93724.66;;;27.32;61.63
11682;BME280;5897;42.640;23.310;2023-06-14T10:41:58;93717.13;;;27.07;62.66
11682;BME280;5897;42.640;23.310;2023-06-14T10:44:40;93720.50;;;26.79;62.54
11682;BME280;5897;42.640;23.310;2023-06-14T10:47:10;93723.19;;;26.59;62.21
11682;BME280;5897;42.640;23.310;2023-06-14T10:49:39;93721.81;;;26.39;63.09
11682;BME280;5897;42.640;23.310;2023-06-14T10:52:08;93716.97;;;26.53;65.17
11682;BME280;5897;42.640;23.310;2023-06-14T10:55:05;93711.00;;;26.75;64.86
11682;BME280;5897;42.640;23.310;2023-06-14T10:57:35;93696.97;;;27.19;65.87
11682;BME280;5897;42.640;23.310;2023-06-14T11:00:03;93689.81;;;27.65;60.60
11682;BME280;5897;42.640;23.310;2023-06-14T11:05:49;93700.78;;;28.67;53.08
11682;BME280;5897;42.640;23.310;2023-06-14T11:08:33;93698.25;;;28.49;52.21
11682;BME280;5897;42.640;23.310;2023-06-14T11:11:06;93693.19;;;28.40;54.94
11682;BME280;5897;42.640;23.310;2023-06-14T11:13:34;93696.56;;;27.90;55.37
11682;BME280;5897;42.640;23.310;2023-06-14T11:16:10;93684.78;;;26.76;59.08
11682;BME280;5897;42.640;23.310;2023-06-14T11:18:37;93669.84;;;27.12;60.18
11682;BME280;5897;42.640;23.310;2023-06-14T11:21:05;93684.16;;;27.70;56.46
11682;BME280;5897;42.640;23.310;2023-06-14T11:23:32;93690.44;;;27.91;56.50
11682;BME280;5897;42.640;23.310;2023-06-14T11:25:59;93686.84;;;28.32;56.25
11682;BME280;5897;42.640;23.310;2023-06-14T11:28:36;93676.16;;;27.87;58.59
11682;BME280;5897;42.640;23.310;2023-06-14T11:31:03;93682.66;;;28.18;58.14
11682;BME280;5897;42.640;23.310;2023-06-14T11:33:30;93685.13;;;28.29;57.29
11682;BME280;5897;42.640;23.310;2023-06-14T11:35:57;93689.63;;;27.42;57.75
11682;BME280;5897;42.640;23.310;2023-06-14T11:38:26;93679.25;;;27.43;57.15
11682;BME280;5897;42.640;23.310;2023-06-14T11:40:53;93684.88;;;27.30;56.33
11682;BME280;5897;42.640;23.310;2023-06-14T11:43:20;93676.81;;;27.06;55.79
11682;BME280;5897;42.640;23.310;2023-06-14T11:45:48;93661.13;;;26.75;56.41
11682;BME280;5897;42.640;23.310;2023-06-14T11:48:14;93657.97;;;26.32;59.17
11682;BME280;5897;42.640;23.310;2023-06-14T11:50:41;93668.84;;;26.04;59.20
11682;BME280;5897;42.640;23.310;2023-06-14T11:53:08;93660.47;;;25.78;62.37
11682;BME280;5897;42.640;23.310;2023-06-14T11:55:37;93653.19;;;25.93;62.97
11682;BME280;5897;42.640;23.310;2023-06-14T12:01:54;93571.38;;;25.27;63.20
11682;BME280;5897;42.640;23.310;2023-06-14T12:04:24;93629.38;;;25.46;64.12
11682;BME280;5897;42.640;23.310;2023-06-14T12:06:51;93643.63;;;25.18;64.14
11682;BME280;5897;42.640;23.310;2023-06-14T12:09:21;93638.97;;;24.95;66.78
11682;BME280;5897;42.640;23.310;2023-06-14T12:11:50;93634.19;;;24.95;65.84
11682;BME280;5897;42.640;23.310;2023-06-14T12:14:28;93614.56;;;24.80;64.92
11682;BME280;5897;42.640;23.310;2023-06-14T12:17:04;93633.88;;;24.99;65.39
11682;BME280;5897;42.640;23.310;2023-06-14T12:19:31;93631.66;;;24.79;66.23
11682;BME280;5897;42.640;23.310;2023-06-14T12:21:59;93600.91;;;24.51;68.22
11682;BME280;5897;42.640;23.310;2023-06-14T12:24:28;93622.88;;;24.62;67.01
11682;BME280;5897;42.640;23.310;2023-06-14T12:26:58;93623.75;;;24.70;66.08
11682;BME280;5897;42.640;23.310;2023-06-14T12:29:28;93625.25;;;24.71;68.95
11682;BME280;5897;42.640;23.310;2023-06-14T12:31:55;93629.44;;;24.77;70.99
11682;BME280;5897;42.640;23.310;2023-06-14T12:34:22;93622.63;;;24.78;69.00
11682;BME280;5897;42.640;23.310;2023-06-14T12:36:50;93624.97;;;24.74;69.01
11682;BME280;5897;42.640;23.310;2023-06-14T12:39:17;93611.97;;;24.69;69.27
11682;BME280;5897;42.640;23.310;2023-06-14T12:41:44;93612.91;;;24.53;68.95
11682;BME280;5897;42.640;23.310;2023-06-14T12:44:12;93607.25;;;24.46;69.87
11682;BME280;5897;42.640;23.310;2023-06-14T12:46:39;93611.13;;;24.37;71.58
11682;BME280;5897;42.640;23.310;2023-06-14T12:49:08;93609.28;;;24.27;74.79
11682;BME280;5897;42.640;23.310;2023-06-14T12:51:35;93611.53;;;24.04;75.16
11682;BME280;5897;42.640;23.310;2023-06-14T12:54:02;93613.69;;;23.69;76.60
11682;BME280;5897;42.640;23.310;2023-06-14T12:56:29;93617.41;;;23.71;78.96
11682;BME280;5897;42.640;23.310;2023-06-14T12:58:56;93614.25;;;23.62;80.41
11682;BME280;5897;42.640;23.310;2023-06-14T13:01:24;93610.63;;;23.48;81.50
11682;BME280;5897;42.640;23.310;2023-06-14T13:03:50;93597.94;;;23.40;82.67
11682;BME280;5897;42.640;23.310;2023-06-14T13:06:20;93604.72;;;23.39;82.98
11682;BME280;5897;42.640;23.310;2023-06-14T13:08:47;93608.72;;;23.38;82.50